Time;durP1;ratioP1;P1;durP2;ratioP2;P2;SDS_P1;SDS_P2;PMS_P1;PMS_P2;Temp;Humidity;BMP_temperature;BMP_pressure;BME280_temperature;BME280_humidity;BME280_pressure;Samples;Min_cycle;Max_cycle;Signal;HPM_P1;HPM_P2
2021/10/11 00:01:33;;;;;;;16.53;8.37;;;;;;;4.38;85.20;97127.50;4998189;28;20201;-70
2021/10/11 00:03:59;;;;;;;21.87;8.93;;;;;;;4.67;83.81;97130.47;4998118;28;20231;-69
2021/10/11 00:06:26;;;;;;;17.07;7.80;;;;;;;4.58;82.74;97132.03;4998070;28;20198;-69
2021/10/11 00:08:52;;;;;;;19.33;8.77;;;;;;;4.48;83.76;97138.06;4998267;28;20199;-70
2021/10/11 00:11:20;;;;;;;20.73;9.13;;;;;;;4.58;84.41;97145.06;4998193;28;20202;-69
2021/10/11 00:13:46;;;;;;;18.63;7.97;;;;;;;4.30;84.52;97149.91;4998123;28;20225;-70
2021/10/11 00:16:16;;;;;;;19.60;8.70;;;;;;;4.35;84.57;97147.78;4997366;28;20218;-69
2021/10/11 00:18:43;;;;;;;17.87;9.43;;;;;;;4.52;84.72;97147.31;4998444;28;20237;-70
2021/10/11 00:21:09;;;;;;;23.17;10.20;;;;;;;4.84;83.92;97152.50;4998516;28;20206;-70
2021/10/11 00:23:36;;;;;;;21.93;10.17;;;;;;;4.92;84.24;97137.06;4997635;28;20223;-70
2021/10/11 00:26:02;;;;;;;26.70;10.47;;;;;;;4.83;84.58;97148.25;4996948;28;20209;-70
2021/10/11 00:28:30;;;;;;;19.77;9.33;;;;;;;5.12;83.30;97138.94;4998579;28;20205;-70
2021/10/11 00:30:57;;;;;;;23.90;9.20;;;;;;;4.90;83.44;97131.16;4997826;28;20206;-70
2021/10/11 00:33:23;;;;;;;24.43;9.73;;;;;;;4.86;82.77;97137.56;4993990;28;20206;-70
2021/10/11 00:35:50;;;;;;;25.17;10.73;;;;;;;5.07;82.63;97124.59;4997707;28;20207;-70
2021/10/11 00:38:16;;;;;;;25.67;11.50;;;;;;;4.92;83.86;97124.00;4998314;28;20206;-70
2021/10/11 00:40:42;;;;;;;27.00;11.07;;;;;;;4.86;84.00;97124.53;4997297;28;20214;-70
2021/10/11 00:43:09;;;;;;;26.50;11.20;;;;;;;4.84;83.79;97128.19;4997063;28;20202;-70
2021/10/11 00:45:37;;;;;;;29.67;10.80;;;;;;;4.99;82.63;97129.56;4997786;28;20234;-70
2021/10/11 00:48:04;;;;;;;25.83;10.10;;;;;;;4.82;81.94;97129.28;4997496;28;20206;-69
2021/10/11 00:50:30;;;;;;;24.60;10.07;;;;;;;4.94;81.55;97134.38;4997728;28;20199;-70
2021/10/11 00:52:57;;;;;;;22.73;10.50;;;;;;;4.98;82.37;97136.59;4997628;28;20297;-69
2021/10/11 00:55:25;;;;;;;24.97;10.33;;;;;;;5.06;82.54;97121.13;4997445;28;20225;-69
2021/10/11 00:57:51;;;;;;;20.83;9.97;;;;;;;4.98;81.58;97125.34;4997174;28;20211;-70
2021/10/11 01:00:19;;;;;;;21.53;9.83;;;;;;;4.74;81.92;97132.47;4997262;28;20202;-70
2021/10/11 01:02:47;;;;;;;18.97;9.40;;;;;;;5.09;81.48;97125.28;4997386;28;20202;-69
2021/10/11 01:05:13;;;;;;;20.03;9.50;;;;;;;4.97;80.88;97121.06;4996593;28;20430;-70
2021/10/11 01:07:39;;;;;;;22.40;10.30;;;;;;;4.81;81.37;97122.38;4997318;28;20209;-70
2021/10/11 01:10:06;;;;;;;20.13;9.60;;;;;;;4.66;81.82;97121.81;4997215;28;20217;-70
2021/10/11 01:12:33;;;;;;;20.60;9.70;;;;;;;4.68;81.16;97116.47;4996811;28;21155;-70
2021/10/11 01:14:59;;;;;;;19.50;9.53;;;;;;;4.65;81.25;97114.09;4997476;28;20593;-69
2021/10/11 01:17:26;;;;;;;19.20;9.40;;;;;;;4.72;81.71;97112.66;4997407;28;20970;-70
2021/10/11 01:19:56;;;;;;;18.60;9.30;;;;;;;4.82;81.56;97112.66;4997315;28;21290;-70
2021/10/11 01:22:34;;;;;;;19.33;9.80;;;;;;;4.67;81.90;97114.81;4997444;28;20218;-70
2021/10/11 01:25:00;;;;;;;18.57;9.07;;;;;;;4.46;81.97;97116.47;4997509;28;20311;-70
2021/10/11 01:27:28;;;;;;;20.17;9.57;;;;;;;4.46;80.67;97112.09;4995763;28;20195;-70
2021/10/11 01:29:55;;;;;;;16.57;8.97;;;;;;;4.37;80.53;97110.19;4997994;28;20215;-69
2021/10/11 01:32:21;;;;;;;17.13;9.00;;;;;;;4.41;81.74;97101.16;4993583;28;20203;-69
2021/10/11 01:34:48;;;;;;;17.13;8.83;;;;;;;4.52;81.40;97097.72;4997070;28;20214;-69
2021/10/11 01:37:15;;;;;;;19.87;9.77;;;;;;;4.41;82.55;97087.31;4996219;28;20213;-70
2021/10/11 01:39:42;;;;;;;18.80;9.57;;;;;;;4.28;82.52;97089.22;4998001;28;20202;-70
2021/10/11 01:42:08;;;;;;;20.13;9.53;;;;;;;4.48;81.24;97091.94;4996282;28;20203;-70
2021/10/11 01:44:35;;;;;;;21.00;9.57;;;;;;;4.58;79.94;97089.41;4997078;28;20234;-70
2021/10/11 01:47:01;;;;;;;22.67;9.20;;;;;;;4.43;80.86;97088.00;4997100;28;20203;-70
2021/10/11 01:49:28;;;;;;;18.83;9.30;;;;;;;4.36;80.66;97087.66;4996767;28;20210;-70
2021/10/11 01:51:55;;;;;;;19.73;9.83;;;;;;;4.31;80.82;97084.56;4996516;28;20214;-70
2021/10/11 01:54:22;;;;;;;20.03;9.60;;;;;;;4.57;80.29;97085.13;5000046;28;20226;-70
2021/10/11 01:56:49;;;;;;;19.93;9.57;;;;;;;4.06;79.94;97083.13;5000471;28;20214;-70
2021/10/11 01:59:15;;;;;;;18.27;9.27;;;;;;;4.16;80.79;97082.31;5000402;28;20198;-69
2021/10/11 02:01:42;;;;;;;22.20;9.90;;;;;;;4.08;82.18;97071.63;5001191;28;20241;-70
2021/10/11 02:04:08;;;;;;;19.93;10.27;;;;;;;4.26;82.04;97075.44;5000638;28;20234;-70
2021/10/11 02:06:35;;;;;;;20.40;9.73;;;;;;;4.19;82.37;97069.06;4999288;28;20689;-69
2021/10/11 02:09:01;;;;;;;21.40;9.83;;;;;;;4.07;83.27;97071.75;5000791;28;20403;-69
2021/10/11 02:11:29;;;;;;;27.47;11.10;;;;;;;4.10;84.44;97063.69;5000469;28;20218;-69
2021/10/11 02:13:56;;;;;;;20.50;10.23;;;;;;;4.09;83.85;97072.50;4999661;28;20227;-70
2021/10/11 02:16:22;;;;;;;22.33;10.67;;;;;;;4.13;84.09;97072.13;4999465;28;20218;-70
2021/10/11 02:18:49;;;;;;;20.83;10.70;;;;;;;4.06;84.10;97078.78;4997875;28;20249;-70
2021/10/11 02:21:15;;;;;;;23.50;10.93;;;;;;;4.35;82.97;97079.94;5000225;28;20903;-70
2021/10/11 02:23:42;;;;;;;21.63;10.87;;;;;;;4.39;83.94;97076.16;4999591;28;20233;-70
2021/10/11 02:26:08;;;;;;;27.33;11.10;;;;;;;4.52;83.48;97076.84;4999136;28;20226;-69
2021/10/11 02:28:36;;;;;;;23.23;10.87;;;;;;;4.71;83.34;97077.06;5000207;28;20199;-70
2021/10/11 02:31:03;;;;;;;22.47;10.70;;;;;;;4.56;81.97;97084.31;5000127;28;20333;-70
2021/10/11 02:33:29;;;;;;;23.27;10.70;;;;;;;4.46;80.72;97077.34;4996874;28;20202;-70
2021/10/11 02:35:55;;;;;;;24.43;10.63;;;;;;;4.33;80.88;97082.69;4999488;28;20575;-70
2021/10/11 02:38:23;;;;;;;24.33;10.90;;;;;;;4.34;81.38;97079.13;4999196;28;20209;-70
2021/10/11 02:40:50;;;;;;;21.53;10.60;;;;;;;4.37;82.20;97084.09;5000295;28;20221;-69
2021/10/11 02:43:16;;;;;;;26.47;11.97;;;;;;;4.44;83.20;97084.44;4999455;28;20691;-70
2021/10/11 02:45:44;;;;;;;30.23;12.67;;;;;;;4.44;84.30;97081.84;4998566;28;20233;-70
2021/10/11 02:48:10;;;;;;;22.00;10.33;;;;;;;4.04;81.89;97087.66;4999747;28;20249;-69
2021/10/11 02:50:37;;;;;;;23.83;10.63;;;;;;;3.78;81.67;97089.63;4999763;28;20674;-69
2021/10/11 02:53:03;;;;;;;23.73;10.87;;;;;;;4.03;81.63;97083.38;4998945;28;20214;-70
2021/10/11 02:55:29;;;;;;;23.67;10.40;;;;;;;3.94;82.75;97084.91;4999251;28;21175;-70
2021/10/11 02:57:56;;;;;;;21.10;10.30;;;;;;;4.03;81.38;97084.19;5000677;28;20214;-70
2021/10/11 03:00:22;;;;;;;25.20;10.70;;;;;;;3.80;81.34;97077.28;4998826;28;20206;-70
2021/10/11 03:02:50;;;;;;;26.00;11.53;;;;;;;4.08;81.71;97076.84;4998802;28;21222;-69
2021/10/11 03:05:17;;;;;;;24.87;10.87;;;;;;;3.87;82.61;97086.31;4998586;28;20230;-70
2021/10/11 03:07:43;;;;;;;20.73;10.27;;;;;;;3.99;80.13;97077.56;4998690;28;20206;-70
2021/10/11 03:10:10;;;;;;;20.97;10.07;;;;;;;3.92;79.82;97075.53;4998534;28;20206;-69
2021/10/11 03:12:36;;;;;;;21.20;9.70;;;;;;;3.85;79.45;97069.94;4999599;28;20218;-69
2021/10/11 03:15:03;;;;;;;20.13;9.57;;;;;;;3.92;80.15;97071.16;4999062;28;20326;-69
2021/10/11 03:17:30;;;;;;;24.07;10.77;;;;;;;3.91;81.39;97061.69;4998143;28;20210;-70
2021/10/11 03:19:57;;;;;;;23.50;10.00;;;;;;;3.78;82.09;97062.72;4998966;28;20209;-70
2021/10/11 03:22:24;;;;;;;22.63;10.27;;;;;;;3.80;81.22;97060.84;4998883;28;20455;-70
2021/10/11 03:24:50;;;;;;;21.17;9.57;;;;;;;3.70;80.57;97068.53;4998590;28;21059;-69
2021/10/11 03:27:17;;;;;;;23.23;11.10;;;;;;;3.94;80.86;97065.84;4998412;28;20217;-69
2021/10/11 03:29:43;;;;;;;22.23;10.03;;;;;;;3.88;80.64;97063.69;4999168;28;20206;-69
2021/10/11 03:32:10;;;;;;;24.93;11.20;;;;;;;3.87;81.49;97062.88;4994693;28;20210;-69
2021/10/11 03:34:36;;;;;;;22.07;10.30;;;;;;;3.88;81.71;97066.28;4998145;28;20226;-69
2021/10/11 03:37:04;;;;;;;22.00;10.97;;;;;;;4.12;82.96;97073.06;4998119;28;20202;-70
2021/10/11 03:39:31;;;;;;;26.67;12.63;;;;;;;3.84;84.49;97072.69;4998775;28;20252;-69
2021/10/11 03:41:57;;;;;;;27.47;12.30;;;;;;;3.83;85.54;97068.41;4998178;28;20216;-69
2021/10/11 03:44:23;;;;;;;26.00;12.40;;;;;;;3.78;87.17;97074.00;4998531;28;20226;-69
2021/10/11 03:46:50;;;;;;;27.83;12.03;;;;;;;3.78;84.87;97078.34;4997832;28;20210;-69
2021/10/11 03:49:16;;;;;;;25.23;12.03;;;;;;;3.95;84.47;97081.34;4997851;28;20578;-69
2021/10/11 03:51:43;;;;;;;26.53;12.00;;;;;;;3.91;84.27;97081.72;4998103;28;20543;-70
2021/10/11 03:54:11;;;;;;;25.10;12.40;;;;;;;4.08;84.55;97079.47;4998399;28;20804;-70
2021/10/11 03:56:37;;;;;;;36.33;12.77;;;;;;;3.76;85.79;97081.06;4997057;28;20221;-70
2021/10/11 03:59:04;;;;;;;30.10;13.87;;;;;;;3.94;85.91;97089.28;4998589;28;20629;-70
2021/10/11 04:01:30;;;;;;;28.77;12.53;;;;;;;4.01;85.12;97086.09;4998906;28;20200;-70
2021/10/11 04:03:56;;;;;;;29.63;13.40;;;;;;;4.00;85.54;97094.06;4997582;28;20284;-69
2021/10/11 04:06:23;;;;;;;30.10;14.00;;;;;;;4.16;84.24;97094.53;4996907;28;20226;-69
2021/10/11 04:08:50;;;;;;;28.87;13.30;;;;;;;4.07;83.37;97100.44;4998399;28;20740;-69
2021/10/11 04:11:24;;;;;;;30.67;13.50;;;;;;;4.26;84.56;97098.91;4998456;28;20209;-69
2021/10/11 04:13:51;;;;;;;30.47;12.33;;;;;;;4.16;83.17;97095.34;4998326;28;20241;-69
2021/10/11 04:16:18;;;;;;;27.33;12.33;;;;;;;3.95;84.02;97114.44;4996306;28;20210;-70
2021/10/11 04:18:44;;;;;;;29.10;13.83;;;;;;;4.06;83.57;97112.66;4998408;28;20210;-70
2021/10/11 04:21:11;;;;;;;28.73;12.87;;;;;;;3.89;83.94;97107.88;4998226;28;20202;-70
2021/10/11 04:23:38;;;;;;;28.37;13.10;;;;;;;4.05;83.85;97112.75;4997810;28;20198;-69
2021/10/11 04:26:05;;;;;;;27.13;13.20;;;;;;;3.96;84.32;97113.47;4997190;28;20226;-69
2021/10/11 04:28:33;;;;;;;26.33;12.93;;;;;;;4.01;84.12;97114.78;4998259;28;20324;-69
2021/10/11 04:30:59;;;;;;;32.40;13.57;;;;;;;3.90;84.53;97114.75;4997819;28;20212;-69
2021/10/11 04:33:26;;;;;;;27.33;13.77;;;;;;;4.11;83.29;97113.16;4995473;28;20264;-69
2021/10/11 04:35:53;;;;;;;29.87;14.30;;;;;;;4.06;82.25;97117.88;4997118;28;20202;-69
2021/10/11 04:38:19;;;;;;;26.40;13.07;;;;;;;4.10;81.90;97108.88;4996762;28;20205;-69
2021/10/11 04:40:46;;;;;;;32.67;14.37;;;;;;;4.17;81.93;97120.50;4998139;28;21161;-69
2021/10/11 04:43:12;;;;;;;33.10;15.93;;;;;;;4.16;82.14;97111.00;4998008;28;20207;-70
2021/10/11 04:45:40;;;;;;;35.20;14.83;;;;;;;4.31;81.90;97102.81;4996284;28;20218;-70
2021/10/11 04:48:08;;;;;;;37.43;15.97;;;;;;;4.26;81.11;97104.13;4996048;28;20217;-68
2021/10/11 04:50:34;;;;;;;31.37;15.27;;;;;;;3.92;81.16;97105.06;4997932;28;20203;-69
2021/10/11 04:53:02;;;;;;;32.50;15.33;;;;;;;3.94;82.20;97097.94;4996892;28;20214;-69
2021/10/11 04:55:30;;;;;;;30.67;15.67;;;;;;;4.07;82.83;97090.00;4996682;28;20222;-70
2021/10/11 04:57:57;;;;;;;38.30;16.07;;;;;;;3.97;82.88;97089.91;4997410;28;20207;-70
2021/10/11 05:00:24;;;;;;;30.90;15.13;;;;;;;4.10;82.57;97084.56;4997319;28;21025;-69
2021/10/11 05:02:52;;;;;;;33.03;15.27;;;;;;;4.34;82.01;97076.53;4996811;28;21238;-70
2021/10/11 05:05:19;;;;;;;34.07;15.03;;;;;;;4.24;81.94;97074.75;4997163;28;20256;-69
2021/10/11 05:07:45;;;;;;;30.47;14.10;;;;;;;4.08;83.11;97076.03;4996386;28;20209;-69
2021/10/11 05:10:12;;;;;;;31.53;13.93;;;;;;;4.06;83.56;97083.13;4996755;28;20206;-70
2021/10/11 05:12:38;;;;;;;37.00;15.53;;;;;;;4.01;84.91;97091.31;4997042;28;20209;-70
2021/10/11 05:15:06;;;;;;;33.23;15.43;;;;;;;4.21;84.24;97088.00;4997505;28;20230;-69
2021/10/11 05:17:32;;;;;;;40.53;16.07;;;;;;;4.05;85.23;97091.91;4996381;28;20210;-69
2021/10/11 05:20:02;;;;;;;35.83;15.27;;;;;;;4.29;85.26;97083.06;4997053;28;20209;-69
2021/10/11 05:22:28;;;;;;;32.40;15.43;;;;;;;4.14;85.19;97076.41;4997468;28;20645;-69
2021/10/11 05:24:55;;;;;;;37.10;16.57;;;;;;;4.18;85.67;97075.22;4997025;28;20222;-69
2021/10/11 05:27:21;;;;;;;47.27;16.03;;;;;;;4.25;85.63;97069.41;4995443;28;20227;-69
2021/10/11 05:29:47;;;;;;;34.93;16.23;;;;;;;4.32;85.50;97069.75;4996475;28;20636;-69
2021/10/11 05:32:14;;;;;;;44.33;17.07;;;;;;;4.46;86.18;97067.72;4995020;28;20217;-69
2021/10/11 05:34:41;;;;;;;42.03;17.43;;;;;;;4.45;85.75;97067.84;4996130;28;20583;-69
2021/10/11 05:37:09;;;;;;;45.33;17.57;;;;;;;4.70;85.76;97071.03;4995994;28;20210;-69
2021/10/11 05:39:35;;;;;;;44.33;18.03;;;;;;;4.56;85.62;97071.28;4996615;28;20273;-69
2021/10/11 05:42:05;;;;;;;38.03;17.00;;;;;;;4.56;85.53;97073.06;4996793;28;20280;-69
2021/10/11 05:44:32;;;;;;;48.03;19.90;;;;;;;4.55;86.12;97076.63;4996892;28;20229;-69
2021/10/11 05:46:59;;;;;;;49.70;19.70;;;;;;;4.62;85.62;97062.97;4996102;28;20601;-69
2021/10/11 05:49:25;;;;;;;53.03;19.80;;;;;;;4.52;86.69;97069.00;4997251;28;20268;-69
2021/10/11 05:51:51;;;;;;;46.40;20.43;;;;;;;4.53;86.85;97076.75;4996674;28;20691;-69
2021/10/11 05:54:20;;;;;;;44.43;19.60;;;;;;;4.86;87.18;97074.06;4995783;28;20230;-69
2021/10/11 05:56:46;;;;;;;45.60;19.27;;;;;;;4.78;87.59;97067.81;4996152;28;20202;-69
2021/10/11 05:59:12;;;;;;;40.40;18.87;;;;;;;4.74;87.23;97061.19;4997044;28;20206;-69
2021/10/11 06:01:39;;;;;;;48.10;19.60;;;;;;;4.83;87.00;97059.47;4996478;28;20213;-69
2021/10/11 06:04:05;;;;;;;43.70;18.63;;;;;;;4.75;86.97;97057.59;4997126;28;20222;-69
2021/10/11 06:06:32;;;;;;;42.43;18.37;;;;;;;4.68;87.71;97059.03;4995890;28;20230;-69
2021/10/11 06:08:58;;;;;;;47.00;19.77;;;;;;;4.83;87.57;97054.25;4996704;28;20580;-69
2021/10/11 06:11:26;;;;;;;50.90;20.00;;;;;;;5.14;87.84;97050.84;4996888;28;20206;-69
2021/10/11 06:13:53;;;;;;;48.33;19.63;;;;;;;5.04;86.82;97047.31;4996934;28;20237;-69
2021/10/11 06:16:19;;;;;;;45.10;19.33;;;;;;;5.15;86.90;97052.47;4996179;28;20221;-69
2021/10/11 06:18:45;;;;;;;46.37;19.90;;;;;;;5.04;86.95;97062.97;4996486;28;20205;-69
2021/10/11 06:21:12;;;;;;;48.03;20.93;;;;;;;5.02;87.83;97067.50;4996895;28;20210;-69
2021/10/11 06:23:38;;;;;;;50.83;18.60;;;;;;;4.82;88.21;97069.22;4996782;28;20206;-69
2021/10/11 06:26:05;;;;;;;42.03;17.70;;;;;;;4.50;90.05;97086.59;4995344;28;20732;-69
2021/10/11 06:28:33;;;;;;;37.17;15.20;;;;;;;4.63;90.20;97085.50;4996747;28;20212;-69
2021/10/11 06:30:59;;;;;;;41.93;16.67;;;;;;;4.52;89.70;97087.28;4997094;28;20198;-69
2021/10/11 06:33:26;;;;;;;38.43;15.93;;;;;;;4.60;88.88;97088.34;4993707;28;20203;-69
2021/10/11 06:35:53;;;;;;;34.57;12.43;;;;;;;4.32;90.57;97098.44;4996021;28;20241;-69
2021/10/11 06:38:19;;;;;;;41.17;16.83;;;;;;;4.43;89.55;97101.91;4997226;28;20623;-69
2021/10/11 06:40:48;;;;;;;32.17;13.17;;;;;;;4.31;89.78;97109.84;4998777;28;20206;-69
2021/10/11 06:43:15;;;;;;;38.53;16.50;;;;;;;4.36;89.95;97128.56;5001002;28;20211;-69
2021/10/11 06:45:43;;;;;;;40.43;17.17;;;;;;;4.67;89.67;97133.06;5001014;28;20226;-69
2021/10/11 06:48:09;;;;;;;39.47;17.37;;;;;;;4.43;90.05;97133.22;5001516;28;20195;-69
2021/10/11 06:50:36;;;;;;;42.33;17.67;;;;;;;4.61;89.33;97138.75;5000828;28;20209;-69
2021/10/11 06:53:03;;;;;;;41.60;17.10;;;;;;;4.84;88.66;97139.47;5001088;28;20206;-69
2021/10/11 06:55:30;;;;;;;47.23;19.33;;;;;;;4.86;88.33;97149.78;5000022;28;20222;-69
2021/10/11 06:57:56;;;;;;;46.70;19.77;;;;;;;4.93;88.11;97150.97;4999262;28;20213;-69
2021/10/11 07:00:23;;;;;;;49.97;20.10;;;;;;;5.14;87.30;97157.09;4999110;28;20211;-69
2021/10/11 07:02:50;;;;;;;42.10;18.63;;;;;;;5.37;87.64;97156.91;5000171;28;20855;-69
2021/10/11 07:05:17;;;;;;;44.60;19.37;;;;;;;5.46;87.07;97169.28;4998982;28;20226;-69
2021/10/11 07:07:45;;;;;;;41.70;17.77;;;;;;;5.17;88.58;97175.97;4998003;28;20226;-69
2021/10/11 07:10:11;;;;;;;46.87;19.70;;;;;;;5.13;89.91;97184.16;4998810;28;20301;-69
2021/10/11 07:12:38;;;;;;;44.23;19.30;;;;;;;5.23;90.13;97193.81;4999359;28;20297;-69
2021/10/11 07:15:06;;;;;;;51.97;20.43;;;;;;;5.32;90.20;97200.06;4998891;28;20738;-69
2021/10/11 07:17:32;;;;;;;54.20;22.07;;;;;;;5.32;89.66;97185.22;4999307;28;20198;-69
2021/10/11 07:20:00;;;;;;;52.67;20.80;;;;;;;5.59;88.61;97183.00;4999057;28;20308;-69
2021/10/11 07:22:27;;;;;;;54.40;21.20;;;;;;;5.58;88.02;97181.34;4998705;28;20670;-69
2021/10/11 07:24:53;;;;;;;47.77;20.37;;;;;;;5.57;87.98;97179.69;4999808;28;20600;-69
2021/10/11 07:27:20;;;;;;;51.07;21.40;;;;;;;5.82;87.81;97174.16;4998534;28;20230;-69
2021/10/11 07:29:46;;;;;;;50.07;19.97;;;;;;;5.94;87.89;97175.75;4998884;28;20210;-69
2021/10/11 07:32:13;;;;;;;45.37;19.20;;;;;;;5.63;89.08;97163.50;4995720;28;20214;-69
2021/10/11 07:34:40;;;;;;;44.90;20.10;;;;;;;6.00;88.36;97162.19;4998871;28;20710;-69
2021/10/11 07:37:07;;;;;;;40.00;18.50;;;;;;;5.90;89.46;97150.81;4997854;28;20206;-69
2021/10/11 07:39:34;;;;;;;46.93;20.63;;;;;;;6.24;88.55;97151.31;4999395;28;20202;-69
2021/10/11 07:42:01;;;;;;;51.87;22.80;;;;;;;6.36;87.94;97149.47;4998490;28;20223;-69
2021/10/11 07:44:27;;;;;;;47.93;21.40;;;;;;;6.16;89.28;97138.06;4998599;28;20222;-69
2021/10/11 07:46:54;;;;;;;45.20;19.60;;;;;;;6.15;89.60;97140.81;4997877;28;20257;-69
2021/10/11 07:49:22;;;;;;;52.03;19.97;;;;;;;6.56;88.16;97136.34;4998745;28;20216;-69
2021/10/11 07:51:49;;;;;;;55.10;22.17;;;;;;;6.68;88.81;97130.03;4998823;28;20210;-69
2021/10/11 07:54:18;;;;;;;53.70;23.47;;;;;;;7.06;88.69;97115.25;4998260;28;20234;-69
2021/10/11 07:56:45;;;;;;;66.43;23.03;;;;;;;6.78;88.23;97120.44;4998170;28;20207;-69
2021/10/11 07:59:12;;;;;;;57.33;23.93;;;;;;;6.97;88.90;97121.31;4998431;28;20217;-69
2021/10/11 08:01:38;;;;;;;56.93;23.30;;;;;;;6.81;89.43;97114.91;4997427;28;20203;-69
2021/10/11 08:04:05;;;;;;;64.70;24.17;;;;;;;7.33;88.81;97116.31;4997407;28;20237;-69
2021/10/11 08:06:31;;;;;;;54.27;22.83;;;;;;;7.25;87.90;97124.97;4997056;28;20594;-70
2021/10/11 08:08:58;;;;;;;55.90;23.93;;;;;;;7.37;87.76;97117.69;4998383;28;20206;-69
2021/10/11 08:11:26;;;;;;;55.20;23.23;;;;;;;7.51;88.34;97114.66;4998394;28;20253;-69
2021/10/11 08:13:52;;;;;;;54.53;20.97;;;;;;;7.20;89.19;97129.78;4997777;28;20226;-69
2021/10/11 08:16:19;;;;;;;51.30;21.07;;;;;;;7.21;88.85;97126.22;4997212;28;20210;-69
2021/10/11 08:18:45;;;;;;;49.50;21.17;;;;;;;7.32;88.76;97130.38;4997572;28;20205;-69
2021/10/11 08:21:12;;;;;;;45.20;19.83;;;;;;;6.99;91.09;97126.44;4997807;28;20206;-69
2021/10/11 08:23:41;;;;;;;51.43;21.17;;;;;;;7.58;89.32;97139.34;4997559;28;20203;-69
2021/10/11 08:26:08;;;;;;;46.27;21.80;;;;;;;7.92;89.87;97130.13;4996834;28;20213;-69
2021/10/11 08:28:36;;;;;;;47.07;20.97;;;;;;;8.34;88.13;97118.31;4997363;28;20213;-69
2021/10/11 08:31:02;;;;;;;29.20;12.77;;;;;;;7.93;88.73;97122.09;4998680;28;20213;-69
2021/10/11 08:33:29;;;;;;;52.80;21.87;;;;;;;8.21;88.36;97117.81;4994758;28;20206;-69
2021/10/11 08:35:56;;;;;;;36.90;16.00;;;;;;;8.24;88.66;97130.66;4997481;28;20202;-70
2021/10/11 08:38:22;;;;;;;49.43;20.73;;;;;;;8.50;88.24;97122.84;4996649;28;20566;-69
2021/10/11 08:40:50;;;;;;;49.23;18.77;;;;;;;8.59;89.28;97123.78;4997633;28;20206;-69
2021/10/11 08:43:17;;;;;;;50.33;22.10;;;;;;;8.87;87.94;97131.56;4997266;28;20262;-69
2021/10/11 08:45:47;;;;;;;51.07;22.33;;;;;;;9.54;87.47;97126.75;4995899;28;20230;-69
2021/10/11 08:48:14;;;;;;;50.90;22.93;;;;;;;9.36;86.58;97118.00;4996915;28;20226;-69
2021/10/11 08:50:40;;;;;;;55.43;23.60;;;;;;;9.59;85.17;97119.25;4997040;28;20868;-69
2021/10/11 08:53:07;;;;;;;49.37;22.90;;;;;;;9.86;84.50;97114.72;4997295;28;21194;-69
2021/10/11 08:55:34;;;;;;;52.87;24.00;;;;;;;10.13;83.65;97117.28;4997065;28;20258;-70
2021/10/11 08:58:03;;;;;;;54.67;23.17;;;;;;;10.32;84.20;97108.22;4997639;28;20203;-69
2021/10/11 09:00:32;;;;;;;51.77;23.13;;;;;;;10.45;82.91;97113.91;4997052;28;20209;-69
2021/10/11 09:03:01;;;;;;;52.10;22.53;;;;;;;10.36;83.09;97112.19;4996725;28;20202;-69
2021/10/11 09:05:32;;;;;;;48.90;21.20;;;;;;;9.98;84.45;97119.63;4994805;28;20339;-69
2021/10/11 09:08:01;;;;;;;42.87;20.20;;;;;;;10.12;85.16;97116.47;4994960;28;20600;-69
2021/10/11 09:10:28;;;;;;;49.13;20.67;;;;;;;10.13;83.63;97120.75;4995348;28;20198;-69
2021/10/11 09:12:54;;;;;;;38.50;17.80;;;;;;;10.10;84.06;97123.69;4995387;28;20482;-69
2021/10/11 09:15:25;;;;;;;46.53;21.60;;;;;;;10.19;84.20;97122.75;4995592;28;20312;-69
2021/10/11 09:17:55;;;;;;;51.00;22.23;;;;;;;10.37;82.45;97124.41;4995920;28;20211;-69
2021/10/11 09:20:26;;;;;;;51.37;22.43;;;;;;;11.03;81.20;97110.41;4996337;28;20465;-69
2021/10/11 09:22:54;;;;;;;40.87;20.80;;;;;;;11.16;80.96;97105.53;4996552;28;20205;-69
2021/10/11 09:25:22;;;;;;;41.43;20.27;;;;;;;11.26;79.70;97111.47;4996336;28;20572;-70
2021/10/11 09:27:50;;;;;;;46.93;20.87;;;;;;;11.13;80.51;97111.09;4996729;28;20321;-69
2021/10/11 09:30:19;;;;;;;41.10;17.53;;;;;;;11.18;80.88;97108.81;4997026;28;20225;-69
2021/10/11 09:32:47;;;;;;;50.60;20.70;;;;;;;11.41;80.10;97109.06;4993637;28;20207;-70
2021/10/11 09:35:16;;;;;;;45.83;20.10;;;;;;;11.69;78.75;97108.66;4996656;28;20711;-69
2021/10/11 09:37:50;;;;;;;47.93;21.20;;;;;;;11.80;78.18;97105.69;4996041;28;20198;-70
2021/10/11 09:40:18;;;;;;;40.63;18.10;;;;;;;11.62;77.82;97097.09;4996745;28;20219;-69
2021/10/11 09:42:45;;;;;;;42.57;19.50;;;;;;;11.89;77.17;97100.28;4996322;28;20671;-70
2021/10/11 09:45:12;;;;;;;41.87;16.87;;;;;;;11.97;77.71;97097.63;4996596;28;20234;-69
2021/10/11 09:47:39;;;;;;;44.10;19.83;;;;;;;12.20;76.94;97091.50;4994796;28;20521;-69
2021/10/11 09:50:09;;;;;;;50.03;20.13;;;;;;;12.27;76.88;97094.31;4996399;28;20230;-69
2021/10/11 09:52:36;;;;;;;48.37;21.07;;;;;;;12.37;76.72;97089.66;4996729;28;20209;-70
2021/10/11 09:55:06;;;;;;;43.97;19.93;;;;;;;12.96;75.51;97088.25;4995573;28;20226;-70
2021/10/11 09:57:33;;;;;;;44.83;20.07;;;;;;;12.81;74.53;97081.16;4995820;28;20202;-70
2021/10/11 10:00:00;;;;;;;42.83;19.50;;;;;;;12.99;73.60;97076.50;4996257;28;20261;-70
2021/10/11 10:02:30;;;;;;;42.47;19.43;;;;;;;12.93;73.04;97077.16;4996505;28;20702;-70
2021/10/11 10:05:02;;;;;;;38.37;19.10;;;;;;;13.48;73.02;97068.97;4996157;28;20231;-70
2021/10/11 10:07:33;;;;;;;41.13;19.87;;;;;;;13.42;72.95;97074.13;4994690;28;20812;-70
2021/10/11 10:10:02;;;;;;;44.40;19.23;;;;;;;13.30;72.10;97064.94;4995690;28;20217;-70
2021/10/11 10:12:31;;;;;;;37.17;18.37;;;;;;;13.46;70.82;97065.66;4995156;28;20209;-70
2021/10/11 10:15:00;;;;;;;37.27;18.37;;;;;;;13.34;71.10;97070.69;4996230;28;20230;-70
2021/10/11 10:17:34;;;;;;;40.73;19.83;;;;;;;13.77;71.06;97066.47;4999346;28;20293;-70
2021/10/11 10:20:10;;;;;;;38.73;18.77;;;;;;;13.80;70.13;97057.34;4999899;28;20210;-70
2021/10/11 10:22:49;;;;;;;41.95;17.90;;;;;;;13.82;70.38;97064.09;5000345;28;20679;-70
2021/10/11 10:25:16;;;;;;;40.17;18.40;;;;;;;13.75;72.52;97062.34;4999831;28;20222;-70
2021/10/11 10:27:46;;;;;;;35.97;17.23;;;;;;;14.08;68.03;97062.75;4999008;28;20233;-70
2021/10/11 10:30:18;;;;;;;34.17;17.23;;;;;;;14.28;66.61;97063.06;4999451;28;20202;-70
2021/10/11 10:32:56;;;;;;;37.77;17.73;;;;;;;14.37;68.32;97057.53;4996912;28;20203;-70
2021/10/11 10:35:23;;;;;;;34.95;17.15;;;;;;;14.05;68.45;97051.66;4999176;28;20229;-70
2021/10/11 10:37:50;;;;;;;32.63;16.65;;;;;;;14.17;66.94;97045.78;4999450;28;20213;-70
2021/10/11 10:40:19;;;;;;;37.53;17.50;;;;;;;14.75;66.28;97030.75;4999750;28;20682;-70
2021/10/11 10:42:47;;;;;;;33.03;17.43;;;;;;;14.24;68.98;97032.63;4999411;28;20199;-70
2021/10/11 10:45:18;;;;;;;28.80;13.18;;;;;;;14.22;62.52;97024.03;4999656;28;20250;-70
2021/10/11 10:47:44;;;;;;;32.35;13.45;;;;;;;14.23;62.80;97017.72;4998061;28;20222;-70
2021/10/11 10:50:14;;;;;;;28.80;12.15;;;;;;;14.50;62.02;97011.81;4998858;28;20210;-70
2021/10/11 10:52:41;;;;;;;21.33;10.07;;;;;;;14.21;57.79;97030.34;4999138;28;20203;-70
2021/10/11 10:55:08;;;;;;;26.92;12.38;;;;;;;14.38;59.49;97014.06;5000092;28;20254;-70
2021/10/11 10:57:35;;;;;;;29.02;12.38;;;;;;;14.59;58.72;97018.66;4998915;28;20195;-70
2021/10/11 11:00:10;;;;;;;26.83;12.95;;;;;;;14.99;59.38;97011.88;4998892;28;20203;-70
2021/10/11 11:02:36;;;;;;;28.07;13.20;;;;;;;14.57;60.92;97015.38;4999622;28;20381;-70
2021/10/11 11:05:06;;;;;;;27.42;12.77;;;;;;;14.92;59.17;97016.28;4999293;28;20222;-70
2021/10/11 11:07:34;;;;;;;23.90;11.75;;;;;;;14.58;60.60;97011.75;4998429;28;20230;-70
2021/10/11 11:10:02;;;;;;;28.63;12.70;;;;;;;14.54;59.90;97013.94;4999214;28;20207;-69
2021/10/11 11:12:31;;;;;;;26.73;12.70;;;;;;;14.70;61.10;97011.91;4999089;28;20207;-70
2021/10/11 11:14:57;;;;;;;24.48;12.20;;;;;;;14.49;59.89;97013.63;4998344;28;20242;-70
2021/10/11 11:17:30;;;;;;;30.10;13.45;;;;;;;14.86;59.63;97017.00;4998657;28;20207;-70
2021/10/11 11:19:56;;;;;;;28.48;12.93;;;;;;;14.47;59.78;97013.00;4999144;28;20217;-70
2021/10/11 11:22:30;;;;;;;29.33;12.25;;;;;;;14.73;58.93;97014.19;4998806;28;20211;-69
2021/10/11 11:25:01;;;;;;;25.63;12.98;;;;;;;14.98;59.24;97015.56;4998779;28;20233;-70